• Join FlightAware (Why Join?)
  • Login
  • US Flag 
03:15PM EDT


 

Airport Tracker/Info


-or-


 

Live Flight TrackerFlight Track Log ✈ UAL3740 ✈ 19-Apr-2013 ✈ KIAD - KPVD

Flight Track Log - Related Links

Times and Time Zones

All times are in EDT time to prevent confusion due to time zone crossing. See the UAL3740 flight status page for this flight to view local times or setup timezone preferences in your user account.

Time Position Orientation Groundspeed Altitude Reporting Facility
EDT Latitude Longitude Course Direction KTS MPH feet Rate Location/Type
08:33AM 38.9833 -77.5500 78° East 228 262 2,800  Level Potomac TRACON
08:34AM 39.0500 -77.5667 349° North 290 334 5,500 2,700 Climbing Potomac TRACON
08:35AM 39.1333 -77.5167 25° Northeast 327 376 8,300 2,280 Climbing Potomac TRACON
08:36AM 39.1667 -77.4167 67° East 345 397 10,100 840 Climbing Potomac TRACON
08:37AM 39.1667 -77.3000 90° East 386 444 10,000 120 Descending Potomac TRACON
08:38AM 39.0846 -76.5590 78° East  Level FlightAware Approximate
08:38AM 39.1333 -77.1667 108° East 386 444 10,400  Level Potomac TRACON
08:40AM 39.0878 -76.8778 101° East 405 466 14,200 1,800 Climbing Washington Center
08:41AM 39.0997 -76.7256 84° East 411 473 16,100 1,920 Climbing Washington Center
08:42AM 39.1136 -76.5733 83° East 418 481 18,100 1,800 Climbing Washington Center
08:43AM 39.1294 -76.4158 83° East 430 495 19,700 1,680 Climbing Washington Center
08:44AM 39.1450 -76.2581 83° East 436 502 21,500 1,680 Climbing Washington Center
08:45AM 39.1686 -76.0789 80° East 448 516 23,100 1,620 Climbing Washington Center
08:46AM 39.1900 -75.9183 80° East 448 516 24,800 1,440 Climbing Washington Center
08:47AM 39.2653 -75.7900 53° Northeast 433 498 26,000 1,200 Climbing Washington Center
08:48AM 39.3594 -75.6667 45° Northeast 455 524 27,200 1,020 Climbing Washington Center
08:49AM 39.4531 -75.5431 46° Northeast 461 531 28,100 900 Climbing Washington Center
08:50AM 39.5508 -75.4192 44° Northeast 472 543 29,100 1,200 Climbing Washington Center
08:51AM 39.6444 -75.2950 46° Northeast 477 549 30,500 1,200 Climbing Washington Center
08:51AM 39.6828 -75.2433 46° Northeast 482 555 30,900 1,020 Climbing New York Center
08:52AM 39.7642 -75.1242 48° Northeast 496 571 32,100 1,020 Climbing New York Center
08:53AM 39.8525 -74.9944 48° Northeast 491 565 33,000 420 Climbing New York Center
08:54AM 39.9444 -74.8647 47° Northeast 491 565 33,000  Level New York Center
08:55AM 40.0225 -74.7147 56° Northeast 491 565 33,000  Level New York Center
08:56AM 40.0886 -74.5422 63° Northeast 491 565 33,000 -180 Level New York Center
08:59AM 40.2389 -74.1500 63° Northeast 496 571 32,500 -780 Descending Boston Center
09:00AM 40.2994 -73.9992 62° Northeast 479 551 30,500 -2,040 Descending Boston Center
09:01AM 40.3597 -73.8453 63° Northeast 466 536 28,500 -1,800 Descending Boston Center
09:02AM 40.4178 -73.6883 64° Northeast 466 536 27,000 -780 Descending Boston Center
09:03AM 40.4758 -73.5258 65° Northeast 474 545 27,000 -240 Level Boston Center
09:04AM 40.5292 -73.3767 65° Northeast 461 531 26,600 -1,020 Descending Boston Center
09:05AM 40.5844 -73.2297 64° Northeast 450 518 25,000 -1,680 Descending Boston Center
09:06AM 40.6356 -73.0800 66° East 445 512 23,300 -1,740 Descending Boston Center
09:07AM 40.6906 -72.9383 63° Northeast 440 506 21,600 -1,560 Descending Boston Center
09:08AM 40.7408 -72.8072 63° Northeast 440 506 20,300 -1,500 Descending Boston Center
09:09AM 40.7933 -72.6594 65° Northeast 440 506 18,600 -1,740 Descending Boston Center
09:10AM 40.8436 -72.5058 67° East 446 513 16,900 -1,740 Descending Boston Center
09:11AM 40.8978 -72.3606 64° Northeast 446 513 15,200 -1,680 Descending Boston Center
09:12AM 40.9475 -72.2175 65° Northeast 435 501 13,600 -1,800 Descending Boston Center
09:12AM 40.9642 -72.1764 62° Northeast 421 484 13,000 -1,800 Descending Boston Center
09:12AM 40.9850 -72.1239 62° Northeast 419 482 12,400 -1,200 Descending Boston Center
09:13AM 40.9953 -72.0800 73° East 422 486 12,100 -1,380 Descending Boston Center
09:13AM 41.0200 -72.0164 63° Northeast 411 473 11,200 -1,140 Descending Boston Center
09:14AM 41.0322 -71.9778 67° East 402 463 11,000 -540 Descending Boston Center
09:14AM 41.0694 -71.9006 57° Northeast 383 441 10,700 -600 Descending Boston Center
09:15AM 41.0942 -71.8481 58° Northeast 369 425 10,400 -1,140 Descending Boston Center
09:15AM 41.1272 -71.8036 45° Northeast 344 396 9,700 -1,500 Descending Boston Center
09:16AM 41.1500 -71.7564 57° Northeast 339 390 9,000 -1,800 Descending Boston Center
09:16AM 41.1831 -71.7147 43° Northeast 321 369 7,900 -1,800 Descending Boston Center
09:17AM 41.2078 -71.6675 55° Northeast 319 367 7,200 -1,800 Descending Boston Center
09:17AM 41.2386 -71.6258 45° Northeast 316 364 6,100 -1,980 Descending Boston Center
09:18AM 41.2697 -71.5756 51° Northeast 299 344 5,200 -1,140 Descending Boston Center
09:18AM 41.2922 -71.5367 52° Northeast 310 357 5,000 -240 Descending Boston Center
09:19AM 41.3272 -71.4919 44° Northeast 299 344 5,000  Level Boston Center
09:19AM 41.3436 -71.4503 62° Northeast 307 353 5,000  Level Boston Center
09:20AM 41.3828 -71.4025 42° Northeast 294 338 5,000  Level Boston Center
09:20AM 41.4139 -71.3939 12° North 306 352 5,000  Level Boston Center
09:21AM 41.4597 -71.3875 North 279 321 5,000  Level Boston Center
09:21AM 41.4931 -71.3814 North 298 343 5,000  Level Boston Center
09:22AM 41.5472 -71.3806 North 279 321 5,000  Level Boston Center
09:22AM 41.5931 -71.3742 North 296 341 5,000  Level Boston Center
09:23AM 41.6306 -71.3681 North 290 334 5,000  Level Boston Center
09:23AM 41.6697 -71.3286 37° Northeast 312 359 5,000  Level Boston Center
09:24AM 41.7028 -71.3139 18° North 290 334 5,000 -780 Level Boston Center
09:24AM 41.7442 -71.2769 34° Northeast 303 349 4,200 -1,380 Descending Boston Center
09:25AM 41.7753 -71.2569 26° Northeast 296 341 3,600 -1,020 Descending Boston Center
09:25AM 41.8144 -71.2228 33° Northeast 296 341 3,100 -900 Descending Boston Center
09:26AM 41.8667 -71.2386 347° North 238 274 2,100 -540 Descending Boston Center
09:27AM 41.8819 -71.2914 291° West 195 224 2,100  Level Boston Center
09:28AM 41.8447 -71.3253 214° Southwest 170 196 2,100 -60 Level Boston Center
09:29AM 41.8094 -71.3567 214° Southwest 161 185 2,000 -120 Descending Boston Center